sensor_id;sensor_type;location;lat;lon;timestamp;pressure;altitude;pressure_sealevel;temperature;humidity
62038;BME280;47991;42.974;12.082;2022-09-25T00:01:14;97477.97;;;14.41;77.18
62038;BME280;47991;42.974;12.082;2022-09-25T00:03:47;97478.06;;;14.47;76.37
62038;BME280;47991;42.974;12.082;2022-09-25T00:06:18;97486.70;;;14.48;76.61
62038;BME280;47991;42.974;12.082;2022-09-25T00:08:47;97491.94;;;14.47;76.43
62038;BME280;47991;42.974;12.082;2022-09-25T00:11:18;97487.59;;;14.45;77.26
62038;BME280;47991;42.974;12.082;2022-09-25T00:13:47;97491.33;;;14.40;77.31
62038;BME280;47991;42.974;12.082;2022-09-25T00:16:19;97500.70;;;14.42;76.96
62038;BME280;47991;42.974;12.082;2022-09-25T00:18:47;97496.45;;;14.41;76.58
62038;BME280;47991;42.974;12.082;2022-09-25T00:21:34;97489.89;;;14.37;77.32
62038;BME280;47991;42.974;12.082;2022-09-25T00:24:05;97483.99;;;14.34;77.26
62038;BME280;47991;42.974;12.082;2022-09-25T00:26:36;97474.83;;;14.32;77.24
62038;BME280;47991;42.974;12.082;2022-09-25T00:29:04;97470.70;;;14.22;78.39
62038;BME280;47991;42.974;12.082;2022-09-25T00:31:33;97472.46;;;14.19;77.97
62038;BME280;47991;42.974;12.082;2022-09-25T00:34:03;97476.45;;;14.13;78.36
62038;BME280;47991;42.974;12.082;2022-09-25T00:36:32;97471.95;;;14.14;78.33
62038;BME280;47991;42.974;12.082;2022-09-25T00:39:00;97473.80;;;14.09;78.93
62038;BME280;47991;42.974;12.082;2022-09-25T00:41:28;97477.23;;;14.08;79.07
62038;BME280;47991;42.974;12.082;2022-09-25T00:44:00;97467.77;;;14.05;79.07
62038;BME280;47991;42.974;12.082;2022-09-25T00:46:41;97467.16;;;14.03;79.37
62038;BME280;47991;42.974;12.082;2022-09-25T00:49:13;97461.49;;;13.91;80.01
62038;BME280;47991;42.974;12.082;2022-09-25T00:51:47;97452.65;;;13.94;79.77
62038;BME280;47991;42.974;12.082;2022-09-25T00:55:04;97455.86;;;13.94;80.32
62038;BME280;47991;42.974;12.082;2022-09-25T00:57:14;97448.13;;;13.96;80.03
62038;BME280;47991;42.974;12.082;2022-09-25T00:59:46;97443.55;;;13.95;80.29
62038;BME280;47991;42.974;12.082;2022-09-25T01:02:22;97435.84;;;13.93;81.70
62038;BME280;47991;42.974;12.082;2022-09-25T01:04:51;97431.69;;;13.94;81.85
62038;BME280;47991;42.974;12.082;2022-09-25T01:07:19;97424.00;;;13.83;82.38
62038;BME280;47991;42.974;12.082;2022-09-25T01:09:46;97428.15;;;13.67;86.55
62038;BME280;47991;42.974;12.082;2022-09-25T01:12:13;97424.94;;;13.67;83.83
62038;BME280;47991;42.974;12.082;2022-09-25T01:14:41;97415.60;;;13.73;82.71
62038;BME280;47991;42.974;12.082;2022-09-25T01:17:21;97420.96;;;13.80;82.23
62038;BME280;47991;42.974;12.082;2022-09-25T01:20:14;97420.85;;;13.90;81.90
62038;BME280;47991;42.974;12.082;2022-09-25T01:30:57;97405.11;;;13.85;85.50
62038;BME280;47991;42.974;12.082;2022-09-25T01:33:34;97406.10;;;13.75;85.31
62038;BME280;47991;42.974;12.082;2022-09-25T01:39:44;97408.17;;;13.72;84.82
62038;BME280;47991;42.974;12.082;2022-09-25T01:41:44;97399.58;;;13.74;83.87
62038;BME280;47991;42.974;12.082;2022-09-25T01:46:49;97409.61;;;13.72;83.32
62038;BME280;47991;42.974;12.082;2022-09-25T01:49:30;97412.80;;;13.72;83.82
62038;BME280;47991;42.974;12.082;2022-09-25T01:52:00;97413.75;;;13.71;83.60
62038;BME280;47991;42.974;12.082;2022-09-25T01:54:29;97411.45;;;13.71;83.40
62038;BME280;47991;42.974;12.082;2022-09-25T01:57:02;97414.86;;;13.70;83.31
62038;BME280;47991;42.974;12.082;2022-09-25T01:59:45;97419.08;;;13.67;84.89
62038;BME280;47991;42.974;12.082;2022-09-25T02:02:18;97424.23;;;13.63;85.36
62038;BME280;47991;42.974;12.082;2022-09-25T02:04:54;97449.58;;;13.64;84.43
62038;BME280;47991;42.974;12.082;2022-09-25T02:07:28;97451.56;;;13.68;85.09
62038;BME280;47991;42.974;12.082;2022-09-25T02:10:04;97445.41;;;13.66;86.07
62038;BME280;47991;42.974;12.082;2022-09-25T02:12:46;97425.48;;;13.63;86.38
62038;BME280;47991;42.974;12.082;2022-09-25T02:15:36;97418.46;;;13.53;86.21
62038;BME280;47991;42.974;12.082;2022-09-25T02:18:07;97433.26;;;13.56;85.17
62038;BME280;47991;42.974;12.082;2022-09-25T02:26:41;97435.84;;;13.54;87.83
62038;BME280;47991;42.974;12.082;2022-09-25T02:29:08;97421.41;;;13.52;86.88
62038;BME280;47991;42.974;12.082;2022-09-25T02:32:12;97421.95;;;13.55;86.71
62038;BME280;47991;42.974;12.082;2022-09-25T02:34:42;97431.30;;;13.48;87.45
62038;BME280;47991;42.974;12.082;2022-09-25T02:37:16;97440.62;;;13.46;86.78
62038;BME280;47991;42.974;12.082;2022-09-25T02:39:49;97449.27;;;13.48;85.94
62038;BME280;47991;42.974;12.082;2022-09-25T02:42:54;97486.75;;;13.52;86.49
62038;BME280;47991;42.974;12.082;2022-09-25T02:45:46;97510.14;;;13.49;87.11
62038;BME280;47991;42.974;12.082;2022-09-25T02:48:24;97498.73;;;13.46;87.10
62038;BME280;47991;42.974;12.082;2022-09-25T02:53:45;97393.00;;;12.99;91.62
62038;BME280;47991;42.974;12.082;2022-09-25T02:56:40;97353.52;;;12.69;93.66
62038;BME280;47991;42.974;12.082;2022-09-25T02:59:14;97367.39;;;12.71;92.34
62038;BME280;47991;42.974;12.082;2022-09-25T03:01:45;97380.75;;;12.75;91.94
62038;BME280;47991;42.974;12.082;2022-09-25T03:04:16;97373.27;;;12.80;91.05
62038;BME280;47991;42.974;12.082;2022-09-25T03:06:45;97373.91;;;12.81;91.73
62038;BME280;47991;42.974;12.082;2022-09-25T03:09:14;97365.36;;;12.82;90.92
62038;BME280;47991;42.974;12.082;2022-09-25T03:11:44;97362.30;;;12.83;91.06
62038;BME280;47991;42.974;12.082;2022-09-25T03:14:12;97361.55;;;12.80;91.67
62038;BME280;47991;42.974;12.082;2022-09-25T03:16:58;97366.71;;;12.75;91.79
62038;BME280;47991;42.974;12.082;2022-09-25T03:19:29;97367.27;;;12.75;90.88
62038;BME280;47991;42.974;12.082;2022-09-25T03:21:56;97366.61;;;12.78;90.48
62038;BME280;47991;42.974;12.082;2022-09-25T03:24:24;97371.08;;;12.77;89.99
62038;BME280;47991;42.974;12.082;2022-09-25T03:26:52;97371.80;;;12.81;89.39
62038;BME280;47991;42.974;12.082;2022-09-25T03:29:20;97361.56;;;12.83;89.41
62038;BME280;47991;42.974;12.082;2022-09-25T03:31:48;97360.28;;;12.84;89.36
62038;BME280;47991;42.974;12.082;2022-09-25T03:34:17;97375.85;;;12.85;88.99
62038;BME280;47991;42.974;12.082;2022-09-25T03:36:46;97376.56;;;12.85;89.13
62038;BME280;47991;42.974;12.082;2022-09-25T03:39:15;97374.42;;;12.89;88.84
62038;BME280;47991;42.974;12.082;2022-09-25T03:41:44;97376.67;;;12.91;89.27
62038;BME280;47991;42.974;12.082;2022-09-25T03:44:11;97383.03;;;12.91;88.92
62038;BME280;47991;42.974;12.082;2022-09-25T03:46:39;97375.41;;;12.95;88.96
62038;BME280;47991;42.974;12.082;2022-09-25T03:49:06;97367.05;;;12.96;89.00
62038;BME280;47991;42.974;12.082;2022-09-25T03:51:36;97365.48;;;12.96;89.36
62038;BME280;47991;42.974;12.082;2022-09-25T03:54:05;97364.19;;;12.92;89.18
62038;BME280;47991;42.974;12.082;2022-09-25T03:56:33;97368.54;;;12.90;89.41
62038;BME280;47991;42.974;12.082;2022-09-25T03:59:00;97376.29;;;12.91;89.34
62038;BME280;47991;42.974;12.082;2022-09-25T04:01:28;97380.56;;;12.95;89.94
62038;BME280;47991;42.974;12.082;2022-09-25T04:03:56;97383.86;;;12.85;91.71
62038;BME280;47991;42.974;12.082;2022-09-25T04:06:25;97379.27;;;12.76;92.31
62038;BME280;47991;42.974;12.082;2022-09-25T04:08:53;97376.06;;;12.77;91.71
62038;BME280;47991;42.974;12.082;2022-09-25T04:11:22;97378.58;;;12.76;92.43
62038;BME280;47991;42.974;12.082;2022-09-25T04:13:50;97385.30;;;12.76;91.29
62038;BME280;47991;42.974;12.082;2022-09-25T04:16:18;97386.41;;;12.87;91.23
62038;BME280;47991;42.974;12.082;2022-09-25T04:18:47;97388.99;;;12.93;90.59
62038;BME280;47991;42.974;12.082;2022-09-25T04:21:15;97386.94;;;12.95;90.36
62038;BME280;47991;42.974;12.082;2022-09-25T04:23:42;97384.36;;;13.02;90.09
62038;BME280;47991;42.974;12.082;2022-09-25T04:26:30;97382.38;;;13.06;90.36
62038;BME280;47991;42.974;12.082;2022-09-25T04:28:57;97382.95;;;13.09;90.20
62038;BME280;47991;42.974;12.082;2022-09-25T04:31:28;97387.02;;;13.10;89.94
62038;BME280;47991;42.974;12.082;2022-09-25T04:33:56;97386.66;;;13.09;89.95
62038;BME280;47991;42.974;12.082;2022-09-25T04:36:24;97381.35;;;13.14;90.37
62038;BME280;47991;42.974;12.082;2022-09-25T04:38:51;97380.12;;;13.13;90.22
62038;BME280;47991;42.974;12.082;2022-09-25T04:41:19;97376.08;;;13.17;90.09
62038;BME280;47991;42.974;12.082;2022-09-25T04:43:47;97372.67;;;13.17;90.65
62038;BME280;47991;42.974;12.082;2022-09-25T04:46:14;97357.52;;;13.03;91.21
62038;BME280;47991;42.974;12.082;2022-09-25T04:48:45;97347.97;;;12.86;93.46
62038;BME280;47991;42.974;12.082;2022-09-25T04:51:12;97338.08;;;12.77;92.96
62038;BME280;47991;42.974;12.082;2022-09-25T04:53:40;97339.32;;;12.77;92.37
62038;BME280;47991;42.974;12.082;2022-09-25T04:56:08;97333.30;;;12.85;91.52
62038;BME280;47991;42.974;12.082;2022-09-25T04:58:37;97329.16;;;12.86;91.49
62038;BME280;47991;42.974;12.082;2022-09-25T05:01:07;97330.83;;;12.89;91.60
62038;BME280;47991;42.974;12.082;2022-09-25T05:03:37;97334.31;;;12.90;91.22
62038;BME280;47991;42.974;12.082;2022-09-25T05:06:05;97336.98;;;12.90;91.24
62038;BME280;47991;42.974;12.082;2022-09-25T05:08:32;97327.70;;;12.91;91.01
62038;BME280;47991;42.974;12.082;2022-09-25T05:11:00;97320.77;;;12.87;91.22
62038;BME280;47991;42.974;12.082;2022-09-25T05:13:28;97322.68;;;12.88;91.38
62038;BME280;47991;42.974;12.082;2022-09-25T05:15:56;97320.14;;;12.89;90.95
62038;BME280;47991;42.974;12.082;2022-09-25T05:18:24;97320.77;;;12.91;90.69
62038;BME280;47991;42.974;12.082;2022-09-25T05:20:51;97322.06;;;12.90;91.19
62038;BME280;47991;42.974;12.082;2022-09-25T05:23:22;97327.91;;;12.86;91.00
62038;BME280;47991;42.974;12.082;2022-09-25T05:25:53;97334.77;;;12.88;90.52
62038;BME280;47991;42.974;12.082;2022-09-25T05:32:36;97320.26;;;12.95;90.15
62038;BME280;47991;42.974;12.082;2022-09-25T05:35:04;97332.05;;;12.97;89.97
62038;BME280;47991;42.974;12.082;2022-09-25T05:37:32;97330.93;;;12.98;89.84
62038;BME280;47991;42.974;12.082;2022-09-25T05:40:00;97334.77;;;13.03;90.12
62038;BME280;47991;42.974;12.082;2022-09-25T05:42:29;97328.90;;;13.00;90.58
62038;BME280;47991;42.974;12.082;2022-09-25T05:44:57;97326.56;;;12.92;91.17
62038;BME280;47991;42.974;12.082;2022-09-25T05:47:24;97324.34;;;12.87;91.28
62038;BME280;47991;42.974;12.082;2022-09-25T05:49:51;97323.04;;;12.88;91.29
62038;BME280;47991;42.974;12.082;2022-09-25T05:52:19;97322.98;;;13.05;91.45
62038;BME280;47991;42.974;12.082;2022-09-25T05:54:46;97322.48;;;13.24;90.81
62038;BME280;47991;42.974;12.082;2022-09-25T05:57:13;97327.71;;;13.35;90.58
62038;BME280;47991;42.974;12.082;2022-09-25T05:59:41;97327.86;;;13.46;90.59
62038;BME280;47991;42.974;12.082;2022-09-25T06:02:10;97332.49;;;13.61;90.62
62038;BME280;47991;42.974;12.082;2022-09-25T06:04:38;97327.47;;;13.70;89.94
62038;BME280;47991;42.974;12.082;2022-09-25T06:07:06;97326.39;;;13.77;89.97
62038;BME280;47991;42.974;12.082;2022-09-25T06:09:35;97321.96;;;13.85;89.62
62038;BME280;47991;42.974;12.082;2022-09-25T06:12:03;97324.28;;;13.95;89.52
62038;BME280;47991;42.974;12.082;2022-09-25T06:14:32;97333.08;;;14.01;89.56
62038;BME280;47991;42.974;12.082;2022-09-25T06:17:02;97341.39;;;14.01;89.44
62038;BME280;47991;42.974;12.082;2022-09-25T06:19:30;97342.23;;;13.95;89.26
62038;BME280;47991;42.974;12.082;2022-09-25T06:21:57;97344.30;;;13.89;89.78
62038;BME280;47991;42.974;12.082;2022-09-25T06:24:25;97345.56;;;13.89;89.91
62038;BME280;47991;42.974;12.082;2022-09-25T06:26:52;97348.45;;;13.92;89.79
62038;BME280;47991;42.974;12.082;2022-09-25T06:29:20;97342.04;;;13.92;89.30
62038;BME280;47991;42.974;12.082;2022-09-25T06:31:47;97340.53;;;13.83;89.57
62038;BME280;47991;42.974;12.082;2022-09-25T06:34:16;97337.29;;;13.69;89.96
62038;BME280;47991;42.974;12.082;2022-09-25T06:36:43;97338.70;;;13.65;90.39
62038;BME280;47991;42.974;12.082;2022-09-25T06:39:11;97336.82;;;13.60;90.62
62038;BME280;47991;42.974;12.082;2022-09-25T06:41:39;97335.16;;;13.65;91.16
62038;BME280;47991;42.974;12.082;2022-09-25T06:44:07;97340.23;;;13.70;90.74
62038;BME280;47991;42.974;12.082;2022-09-25T06:46:35;97341.53;;;13.84;90.55
62038;BME280;47991;42.974;12.082;2022-09-25T06:49:03;97337.69;;;14.08;89.79
62038;BME280;47991;42.974;12.082;2022-09-25T06:51:33;97346.27;;;14.26;89.99
62038;BME280;47991;42.974;12.082;2022-09-25T06:54:00;97353.73;;;14.29;89.23
62038;BME280;47991;42.974;12.082;2022-09-25T06:56:28;97360.52;;;14.35;89.51
62038;BME280;47991;42.974;12.082;2022-09-25T06:58:56;97364.95;;;14.47;89.37
62038;BME280;47991;42.974;12.082;2022-09-25T07:01:24;97366.52;;;14.54;89.00
62038;BME280;47991;42.974;12.082;2022-09-25T07:03:51;97372.66;;;14.64;88.75
62038;BME280;47991;42.974;12.082;2022-09-25T07:06:21;97372.00;;;14.70;88.81
62038;BME280;47991;42.974;12.082;2022-09-25T07:08:50;97370.60;;;14.72;88.22
62038;BME280;47991;42.974;12.082;2022-09-25T07:11:20;97365.74;;;14.73;88.52
62038;BME280;47991;42.974;12.082;2022-09-25T07:13:49;97366.98;;;14.73;88.46
62038;BME280;47991;42.974;12.082;2022-09-25T07:16:20;97381.48;;;14.75;88.59
62038;BME280;47991;42.974;12.082;2022-09-25T07:18:47;97380.53;;;14.73;88.27
62038;BME280;47991;42.974;12.082;2022-09-25T07:21:19;97380.92;;;14.51;88.24
62038;BME280;47991;42.974;12.082;2022-09-25T07:23:48;97382.91;;;14.39;88.81
62038;BME280;47991;42.974;12.082;2022-09-25T07:26:22;97373.52;;;14.35;89.00
62038;BME280;47991;42.974;12.082;2022-09-25T07:31:24;97374.73;;;14.47;89.48
62038;BME280;47991;42.974;12.082;2022-09-25T07:33:52;97377.04;;;14.50;89.69
62038;BME280;47991;42.974;12.082;2022-09-25T07:36:20;97382.55;;;14.65;89.37
62038;BME280;47991;42.974;12.082;2022-09-25T07:38:49;97378.66;;;14.68;88.46
62038;BME280;47991;42.974;12.082;2022-09-25T07:41:18;97374.58;;;14.56;88.97
62038;BME280;47991;42.974;12.082;2022-09-25T07:43:54;97375.36;;;14.55;89.21
62038;BME280;47991;42.974;12.082;2022-09-25T07:46:24;97376.89;;;14.49;89.48
62038;BME280;47991;42.974;12.082;2022-09-25T07:48:52;97371.63;;;14.45;89.67
62038;BME280;47991;42.974;12.082;2022-09-25T07:51:20;97377.23;;;14.43;89.48
62038;BME280;47991;42.974;12.082;2022-09-25T07:53:48;97376.98;;;14.44;88.98
62038;BME280;47991;42.974;12.082;2022-09-25T07:56:16;97380.40;;;14.40;89.58
62038;BME280;47991;42.974;12.082;2022-09-25T07:58:44;97387.13;;;14.40;89.50
62038;BME280;47991;42.974;12.082;2022-09-25T08:01:12;97382.80;;;14.45;89.68
62038;BME280;47991;42.974;12.082;2022-09-25T08:03:40;97385.20;;;14.40;89.53
62038;BME280;47991;42.974;12.082;2022-09-25T08:06:10;97379.52;;;14.43;89.63
62038;BME280;47991;42.974;12.082;2022-09-25T08:08:40;97375.98;;;14.50;88.76
62038;BME280;47991;42.974;12.082;2022-09-25T08:11:13;97375.73;;;14.55;89.15
62038;BME280;47991;42.974;12.082;2022-09-25T08:13:41;97384.61;;;14.59;89.10
62038;BME280;47991;42.974;12.082;2022-09-25T08:16:16;97383.17;;;14.52;89.58
62038;BME280;47991;42.974;12.082;2022-09-25T08:18:46;97388.15;;;14.55;89.62
62038;BME280;47991;42.974;12.082;2022-09-25T08:21:17;97385.77;;;14.61;89.29
62038;BME280;47991;42.974;12.082;2022-09-25T08:23:51;97381.98;;;14.69;88.83
62038;BME280;47991;42.974;12.082;2022-09-25T08:26:20;97384.33;;;14.79;88.73
62038;BME280;47991;42.974;12.082;2022-09-25T08:28:48;97378.38;;;14.84;88.64
62038;BME280;47991;42.974;12.082;2022-09-25T08:31:16;97373.74;;;14.94;88.81
62038;BME280;47991;42.974;12.082;2022-09-25T08:33:48;97371.02;;;15.06;88.16
62038;BME280;47991;42.974;12.082;2022-09-25T08:36:16;97361.23;;;15.16;88.10
62038;BME280;47991;42.974;12.082;2022-09-25T08:38:44;97362.23;;;15.33;87.89
62038;BME280;47991;42.974;12.082;2022-09-25T08:41:25;97368.99;;;15.53;88.11
62038;BME280;47991;42.974;12.082;2022-09-25T08:47:15;97372.25;;;15.89;86.47
62038;BME280;47991;42.974;12.082;2022-09-25T08:52:34;97374.63;;;16.03;86.60
62038;BME280;47991;42.974;12.082;2022-09-25T08:55:02;97383.73;;;16.16;86.37
62038;BME280;47991;42.974;12.082;2022-09-25T08:57:37;97386.05;;;16.31;86.17
62038;BME280;47991;42.974;12.082;2022-09-25T09:00:20;97380.12;;;16.48;85.03
62038;BME280;47991;42.974;12.082;2022-09-25T09:02:53;97380.35;;;16.53;84.11
62038;BME280;47991;42.974;12.082;2022-09-25T09:05:26;97377.37;;;16.73;84.66
62038;BME280;47991;42.974;12.082;2022-09-25T09:08:17;97373.71;;;16.71;82.85
62038;BME280;47991;42.974;12.082;2022-09-25T09:11:06;97374.73;;;16.73;83.42
62038;BME280;47991;42.974;12.082;2022-09-25T09:13:50;97366.55;;;16.69;82.95
62038;BME280;47991;42.974;12.082;2022-09-25T09:16:33;97358.60;;;16.86;83.46
62038;BME280;47991;42.974;12.082;2022-09-25T09:19:05;97355.52;;;17.25;82.77
62038;BME280;47991;42.974;12.082;2022-09-25T09:21:40;97352.52;;;17.53;82.39
62038;BME280;47991;42.974;12.082;2022-09-25T09:24:14;97346.20;;;17.99;82.70
62038;BME280;47991;42.974;12.082;2022-09-25T09:32:24;97344.98;;;18.01;79.16
62038;BME280;47991;42.974;12.082;2022-09-25T09:35:20;97337.91;;;17.97;79.99
62038;BME280;47991;42.974;12.082;2022-09-25T09:38:02;97326.63;;;17.87;80.75
62038;BME280;47991;42.974;12.082;2022-09-25T09:40:58;97331.08;;;17.67;82.03
62038;BME280;47991;42.974;12.082;2022-09-25T09:43:46;97329.66;;;17.61;81.83
62038;BME280;47991;42.974;12.082;2022-09-25T09:46:26;97329.40;;;17.63;82.12
62038;BME280;47991;42.974;12.082;2022-09-25T09:51:51;97323.74;;;17.73;82.31
62038;BME280;47991;42.974;12.082;2022-09-25T09:57:08;97318.70;;;17.76;81.23
62038;BME280;47991;42.974;12.082;2022-09-25T09:59:56;97317.21;;;17.72;81.64
62038;BME280;47991;42.974;12.082;2022-09-25T10:02:41;97325.80;;;17.77;81.87
62038;BME280;47991;42.974;12.082;2022-09-25T10:05:36;97337.59;;;17.80;81.35
62038;BME280;47991;42.974;12.082;2022-09-25T10:08:05;97341.09;;;17.64;81.72
62038;BME280;47991;42.974;12.082;2022-09-25T10:10:38;97344.72;;;17.61;82.17
62038;BME280;47991;42.974;12.082;2022-09-25T10:13:19;97348.30;;;17.55;82.58
62038;BME280;47991;42.974;12.082;2022-09-25T10:16:19;97355.59;;;17.61;82.45
62038;BME280;47991;42.974;12.082;2022-09-25T10:21:16;97351.57;;;17.62;82.14
62038;BME280;47991;42.974;12.082;2022-09-25T10:23:50;97347.68;;;17.56;82.26
62038;BME280;47991;42.974;12.082;2022-09-25T10:26:26;97351.97;;;17.59;82.50
62038;BME280;47991;42.974;12.082;2022-09-25T10:28:59;97357.12;;;17.60;82.63
62038;BME280;47991;42.974;12.082;2022-09-25T10:31:30;97360.02;;;17.65;82.99
62038;BME280;47991;42.974;12.082;2022-09-25T10:36:34;97359.30;;;17.82;82.09
62038;BME280;47991;42.974;12.082;2022-09-25T10:39:05;97358.77;;;17.85;81.96
62038;BME280;47991;42.974;12.082;2022-09-25T10:41:46;97356.14;;;18.01;81.80
62038;BME280;47991;42.974;12.082;2022-09-25T10:44:28;97356.83;;;18.12;81.30
62038;BME280;47991;42.974;12.082;2022-09-25T10:50:18;97351.84;;;18.65;80.23
62038;BME280;47991;42.974;12.082;2022-09-25T10:52:51;97347.55;;;18.65;78.84
62038;BME280;47991;42.974;12.082;2022-09-25T10:55:25;97339.92;;;18.67;79.93
62038;BME280;47991;42.974;12.082;2022-09-25T11:00:51;97344.95;;;19.01;79.87
62038;BME280;47991;42.974;12.082;2022-09-25T11:03:32;97342.71;;;19.10;79.39
62038;BME280;47991;42.974;12.082;2022-09-25T11:06:07;97341.53;;;19.22;78.28
62038;BME280;47991;42.974;12.082;2022-09-25T11:08:37;97337.89;;;19.23;78.44
62038;BME280;47991;42.974;12.082;2022-09-25T11:11:07;97337.70;;;19.41;77.79
62038;BME280;47991;42.974;12.082;2022-09-25T11:16:10;97336.14;;;19.58;76.81
62038;BME280;47991;42.974;12.082;2022-09-25T11:19:07;97334.56;;;19.65;76.50
62038;BME280;47991;42.974;12.082;2022-09-25T11:27:50;97339.84;;;19.97;76.70
62038;BME280;47991;42.974;12.082;2022-09-25T11:30:22;97335.08;;;20.15;76.69
62038;BME280;47991;42.974;12.082;2022-09-25T11:33:05;97330.40;;;20.27;75.62
62038;BME280;47991;42.974;12.082;2022-09-25T11:35:56;97326.98;;;20.30;75.54
62038;BME280;47991;42.974;12.082;2022-09-25T11:38:49;97326.25;;;20.32;75.57
62038;BME280;47991;42.974;12.082;2022-09-25T11:44:41;97315.20;;;20.50;76.51
62038;BME280;47991;42.974;12.082;2022-09-25T11:47:16;97309.60;;;20.61;74.87
62038;BME280;47991;42.974;12.082;2022-09-25T11:49:50;97311.52;;;20.54;75.03
62038;BME280;47991;42.974;12.082;2022-09-25T11:52:20;97311.77;;;20.56;74.98
62038;BME280;47991;42.974;12.082;2022-09-25T11:54:55;97304.41;;;20.58;74.38
62038;BME280;47991;42.974;12.082;2022-09-25T12:08:41;97307.73;;;20.73;73.96
62038;BME280;47991;42.974;12.082;2022-09-25T12:11:40;97305.56;;;20.43;74.76
62038;BME280;47991;42.974;12.082;2022-09-25T12:14:26;97293.17;;;20.54;75.37
62038;BME280;47991;42.974;12.082;2022-09-25T12:20:29;97289.30;;;20.59;74.33
62038;BME280;47991;42.974;12.082;2022-09-25T12:40:24;97264.86;;;20.65;74.50
62038;BME280;47991;42.974;12.082;2022-09-25T12:45:58;97258.32;;;20.71;73.03
62038;BME280;47991;42.974;12.082;2022-09-25T12:48:58;97254.74;;;20.73;73.24
62038;BME280;47991;42.974;12.082;2022-09-25T12:51:38;97255.04;;;20.60;73.33
62038;BME280;47991;42.974;12.082;2022-09-25T12:57:03;97233.09;;;20.32;74.70
62038;BME280;47991;42.974;12.082;2022-09-25T13:02:49;97227.29;;;20.43;75.02
62038;BME280;47991;42.974;12.082;2022-09-25T13:05:33;97225.66;;;20.49;74.24
62038;BME280;47991;42.974;12.082;2022-09-25T13:13:25;97212.71;;;20.59;74.02
62038;BME280;47991;42.974;12.082;2022-09-25T13:15:59;97209.30;;;20.57;74.17
62038;BME280;47991;42.974;12.082;2022-09-25T13:18:29;97205.87;;;20.55;73.64
62038;BME280;47991;42.974;12.082;2022-09-25T13:20:58;97201.63;;;20.54;73.60
62038;BME280;47991;42.974;12.082;2022-09-25T13:23:48;97195.36;;;20.33;74.81
62038;BME280;47991;42.974;12.082;2022-09-25T13:26:20;97188.63;;;20.22;76.47
62038;BME280;47991;42.974;12.082;2022-09-25T13:28:56;97189.58;;;20.12;75.76
62038;BME280;47991;42.974;12.082;2022-09-25T13:31:29;97194.04;;;20.15;76.79
62038;BME280;47991;42.974;12.082;2022-09-25T13:34:04;97191.75;;;20.30;75.79
62038;BME280;47991;42.974;12.082;2022-09-25T13:36:37;97189.33;;;20.37;74.76
62038;BME280;47991;42.974;12.082;2022-09-25T13:45:02;97175.63;;;20.42;75.17
62038;BME280;47991;42.974;12.082;2022-09-25T13:55:18;97180.98;;;20.09;75.63
62038;BME280;47991;42.974;12.082;2022-09-25T14:03:02;97170.30;;;20.06;76.05
62038;BME280;47991;42.974;12.082;2022-09-25T14:05:34;97164.29;;;20.12;75.45
62038;BME280;47991;42.974;12.082;2022-09-25T14:08:08;97161.14;;;20.15;75.57
62038;BME280;47991;42.974;12.082;2022-09-25T14:10:46;97158.21;;;20.21;75.47
62038;BME280;47991;42.974;12.082;2022-09-25T14:13:17;97150.73;;;20.29;75.67
62038;BME280;47991;42.974;12.082;2022-09-25T14:15:49;97142.14;;;20.36;75.32
62038;BME280;47991;42.974;12.082;2022-09-25T14:18:44;97129.73;;;20.50;75.08
62038;BME280;47991;42.974;12.082;2022-09-25T14:21:12;97126.92;;;20.66;74.74
62038;BME280;47991;42.974;12.082;2022-09-25T14:23:49;97127.20;;;20.80;73.60
62038;BME280;47991;42.974;12.082;2022-09-25T14:26:22;97133.11;;;20.83;73.20
62038;BME280;47991;42.974;12.082;2022-09-25T14:28:52;97139.62;;;20.78;72.27
62038;BME280;47991;42.974;12.082;2022-09-25T14:39:36;97149.63;;;20.50;73.00
62038;BME280;47991;42.974;12.082;2022-09-25T14:42:15;97152.54;;;20.45;73.22
62038;BME280;47991;42.974;12.082;2022-09-25T14:45:14;97152.23;;;20.17;73.82
62038;BME280;47991;42.974;12.082;2022-09-25T14:47:45;97150.88;;;19.97;75.30
62038;BME280;47991;42.974;12.082;2022-09-25T14:50:24;97156.30;;;19.87;75.15
62038;BME280;47991;42.974;12.082;2022-09-25T14:52:56;97159.86;;;19.61;75.99
62038;BME280;47991;42.974;12.082;2022-09-25T14:55:33;97154.65;;;19.46;75.89
62038;BME280;47991;42.974;12.082;2022-09-25T14:58:01;97160.49;;;19.18;76.49
62038;BME280;47991;42.974;12.082;2022-09-25T15:00:31;97166.58;;;18.96;77.44
62038;BME280;47991;42.974;12.082;2022-09-25T15:02:59;97157.58;;;18.73;78.06
62038;BME280;47991;42.974;12.082;2022-09-25T15:05:31;97158.00;;;18.57;79.01
62038;BME280;47991;42.974;12.082;2022-09-25T15:08:01;97164.49;;;18.51;78.21
62038;BME280;47991;42.974;12.082;2022-09-25T15:10:40;97166.52;;;18.32;79.57
62038;BME280;47991;42.974;12.082;2022-09-25T15:13:19;97157.05;;;18.22;80.13
62038;BME280;47991;42.974;12.082;2022-09-25T15:15:55;97160.50;;;18.05;81.69
62038;BME280;47991;42.974;12.082;2022-09-25T15:18:44;97166.58;;;17.92;82.40
62038;BME280;47991;42.974;12.082;2022-09-25T15:21:23;97162.36;;;17.88;81.61
62038;BME280;47991;42.974;12.082;2022-09-25T15:23:54;97167.33;;;17.78;82.69
62038;BME280;47991;42.974;12.082;2022-09-25T15:26:22;97173.98;;;17.77;81.96
62038;BME280;47991;42.974;12.082;2022-09-25T15:28:50;97173.38;;;17.73;81.75
62038;BME280;47991;42.974;12.082;2022-09-25T15:31:18;97181.48;;;17.69;82.33
62038;BME280;47991;42.974;12.082;2022-09-25T15:34:01;97185.73;;;17.67;82.17
62038;BME280;47991;42.974;12.082;2022-09-25T15:36:29;97191.05;;;17.60;83.26
62038;BME280;47991;42.974;12.082;2022-09-25T15:38:58;97192.70;;;17.56;82.53
62038;BME280;47991;42.974;12.082;2022-09-25T15:41:28;97192.77;;;17.55;82.71
62038;BME280;47991;42.974;12.082;2022-09-25T15:44:18;97194.01;;;17.50;83.45